Aviation Digital Data Service (ADDS)

Output produced by METARs form (1714 UTC 24 February 2017)
found at http://aviationweather.gov/adds/metars/
 
KGON 241545Z 2416/2512 20005KT P6SM SKC 
     FM250700 12005KT 1SM BR BKN003